createdAt,value
2023-01-18T00:01:19.928Z,21.17
2023-01-18T00:03:47.565Z,22.55
2023-01-18T00:06:16.481Z,19.45
2023-01-18T00:08:44.214Z,19.88
2023-01-18T00:11:15.804Z,17.83
2023-01-18T00:13:44.105Z,18.98
2023-01-18T00:16:15.498Z,20.42
2023-01-18T00:18:44.045Z,20.55
2023-01-18T00:21:12.512Z,19.40
2023-01-18T00:23:39.985Z,20.48
2023-01-18T00:26:11.631Z,21.30
2023-01-18T00:28:40.818Z,15.98
2023-01-18T00:31:17.959Z,17.88
2023-01-18T00:33:48.273Z,20.67
2023-01-18T00:36:17.824Z,21.50
2023-01-18T00:38:52.003Z,18.80
2023-01-18T00:41:21.712Z,20.60
2023-01-18T00:43:50.695Z,20.00
2023-01-18T00:46:21.552Z,18.73
2023-01-18T00:48:50.614Z,19.40
2023-01-18T00:51:22.789Z,22.50
2023-01-18T00:53:51.105Z,20.33
2023-01-18T00:56:22.863Z,21.65
2023-01-18T01:01:18.113Z,20.15
2023-01-18T01:04:04.084Z,19.48
2023-01-18T01:06:44.862Z,20.40
2023-01-18T01:09:21.450Z,20.63
2023-01-18T01:12:08.536Z,18.55
2023-01-18T01:14:59.689Z,18.90
2023-01-18T01:17:48.800Z,25.77
2023-01-18T01:20:35.385Z,22.73
2023-01-18T01:23:36.669Z,31.52
2023-01-18T01:26:10.992Z,19.27
2023-01-18T01:28:51.409Z,19.10
2023-01-18T01:31:20.428Z,19.33
2023-01-18T01:33:50.642Z,20.70
2023-01-18T01:36:25.811Z,19.63
2023-01-18T01:38:54.626Z,20.42
2023-01-18T01:41:33.335Z,20.42
2023-01-18T01:44:24.530Z,22.08
2023-01-18T01:47:46.333Z,27.30
2023-01-18T01:50:25.719Z,22.00
2023-01-18T01:52:53.765Z,18.80
2023-01-18T01:55:37.536Z,21.42
2023-01-18T01:58:10.995Z,21.05
2023-01-18T02:00:38.743Z,20.02
2023-01-18T02:03:11.204Z,20.58
2023-01-18T02:05:52.908Z,19.15
2023-01-18T02:08:23.281Z,22.75
2023-01-18T02:10:52.595Z,25.95
2023-01-18T02:13:24.917Z,19.95
2023-01-18T02:16:15.256Z,22.17
2023-01-18T02:19:47.288Z,21.05
2023-01-18T02:22:57.138Z,23.85
2023-01-18T02:25:49.541Z,19.85
2023-01-18T02:31:14.995Z,21.02
2023-01-18T02:34:06.809Z,22.67
2023-01-18T02:36:59.123Z,22.10
2023-01-18T02:39:42.414Z,21.17
2023-01-18T02:42:38.570Z,20.83
2023-01-18T02:45:37.081Z,23.40
2023-01-18T02:48:06.407Z,21.58
2023-01-18T02:50:34.551Z,18.02
2023-01-18T02:53:02.069Z,24.05
2023-01-18T02:55:44.284Z,22.48
2023-01-18T02:58:39.043Z,21.90
2023-01-18T03:01:28.693Z,21.30
2023-01-18T03:04:08.162Z,20.45
2023-01-18T03:06:38.814Z,21.75
2023-01-18T03:09:06.474Z,20.90
2023-01-18T03:11:50.310Z,22.48
2023-01-18T03:14:41.104Z,21.33
2023-01-18T03:17:26.918Z,23.00
2023-01-18T03:20:09.425Z,23.10
2023-01-18T03:23:22.932Z,21.27
2023-01-18T03:25:54.889Z,22.88
2023-01-18T03:28:53.115Z,22.40
2023-01-18T03:31:51.931Z,22.05
2023-01-18T03:34:27.957Z,18.25
2023-01-18T03:37:03.821Z,19.98
2023-01-18T03:39:43.968Z,21.45
2023-01-18T03:42:20.425Z,20.70
2023-01-18T03:45:26.967Z,19.65
2023-01-18T03:47:54.855Z,19.65
2023-01-18T03:50:40.958Z,21.58
2023-01-18T03:53:15.863Z,19.52
2023-01-18T03:55:51.767Z,21.52
2023-01-18T03:58:33.260Z,21.17
2023-01-18T04:01:04.228Z,18.55
2023-01-18T04:03:34.660Z,18.40
2023-01-18T04:06:06.027Z,20.95
2023-01-18T04:08:33.567Z,20.77
2023-01-18T04:11:01.073Z,19.15
2023-01-18T04:13:28.489Z,20.52
2023-01-18T04:15:55.970Z,20.08
2023-01-18T04:18:23.466Z,18.15
2023-01-18T04:20:56.214Z,22.40
2023-01-18T04:23:24.173Z,18.65
2023-01-18T04:25:52.397Z,19.13
2023-01-18T04:28:25.333Z,22.65
2023-01-18T04:30:56.478Z,21.08
2023-01-18T04:33:26.814Z,19.67
2023-01-18T04:35:54.837Z,21.38
2023-01-18T04:38:23.410Z,20.20
2023-01-18T04:40:50.854Z,19.75
2023-01-18T04:43:18.513Z,22.27
2023-01-18T04:46:04.138Z,20.77
2023-01-18T04:48:31.587Z,20.40
2023-01-18T04:50:59.067Z,23.42
2023-01-18T04:53:26.493Z,21.48
2023-01-18T04:55:54.007Z,21.95
2023-01-18T04:58:21.614Z,19.15
2023-01-18T05:00:49.195Z,20.27
2023-01-18T05:03:16.701Z,15.85
2023-01-18T05:05:44.227Z,21.15
2023-01-18T05:08:11.721Z,22.17
2023-01-18T05:10:39.137Z,19.90
2023-01-18T05:13:07.156Z,20.30
2023-01-18T05:15:34.902Z,19.88
2023-01-18T05:18:02.699Z,18.50
2023-01-18T05:20:30.326Z,21.10
2023-01-18T05:22:58.467Z,19.75
2023-01-18T05:25:26.138Z,20.38
2023-01-18T05:27:53.589Z,18.88
2023-01-18T05:30:21.078Z,24.92
2023-01-18T05:32:48.466Z,22.60
2023-01-18T05:35:16.011Z,20.50
2023-01-18T05:37:43.521Z,19.42
2023-01-18T05:40:12.571Z,19.23
2023-01-18T05:42:40.156Z,20.33
2023-01-18T05:45:08.515Z,23.08
2023-01-18T05:47:36.083Z,18.52
2023-01-18T05:50:04.511Z,19.45
2023-01-18T05:52:33.102Z,19.85
2023-01-18T05:55:00.593Z,18.08
2023-01-18T05:57:28.320Z,22.42
2023-01-18T05:59:55.898Z,20.88
2023-01-18T06:02:25.422Z,18.83
2023-01-18T06:04:53.033Z,23.80
2023-01-18T06:07:24.379Z,23.48
2023-01-18T06:09:51.856Z,23.38
2023-01-18T06:12:22.073Z,19.77
2023-01-18T06:14:49.559Z,20.33
2023-01-18T06:17:19.376Z,17.33
2023-01-18T06:19:46.851Z,21.20
2023-01-18T06:22:15.896Z,20.40
2023-01-18T06:24:43.441Z,20.88
2023-01-18T06:27:10.973Z,18.88
2023-01-18T06:29:38.400Z,21.45
2023-01-18T06:32:05.915Z,21.25
2023-01-18T06:34:33.366Z,21.45
2023-01-18T06:37:00.858Z,21.20
2023-01-18T06:39:29.100Z,21.02
2023-01-18T06:41:58.580Z,21.10
2023-01-18T06:46:55.548Z,20.77
2023-01-18T06:49:23.169Z,20.33
2023-01-18T06:51:50.690Z,23.30
2023-01-18T06:54:18.246Z,24.73
2023-01-18T06:56:45.710Z,27.25
2023-01-18T06:59:13.242Z,24.48
2023-01-18T07:01:40.982Z,24.40
2023-01-18T07:04:08.609Z,23.30
2023-01-18T07:06:36.756Z,22.30
2023-01-18T07:09:07.589Z,22.58
2023-01-18T07:11:36.887Z,23.97
2023-01-18T07:14:04.476Z,22.13
2023-01-18T07:16:32.547Z,22.75
2023-01-18T07:19:01.678Z,23.48
2023-01-18T07:21:29.774Z,25.15
2023-01-18T07:23:58.883Z,24.70
2023-01-18T07:26:26.773Z,21.33
2023-01-18T07:28:56.122Z,22.08
2023-01-18T07:31:27.538Z,28.98
2023-01-18T07:33:55.065Z,26.80
2023-01-18T07:36:22.928Z,24.70
2023-01-18T07:38:50.423Z,23.20
2023-01-18T07:41:18.090Z,26.42
2023-01-18T07:43:46.068Z,23.88
2023-01-18T07:46:20.625Z,22.95
2023-01-18T07:48:48.943Z,24.02
2023-01-18T07:51:16.408Z,25.15
2023-01-18T07:53:44.551Z,22.42
2023-01-18T07:56:15.627Z,23.58
2023-01-18T07:58:44.051Z,25.80
2023-01-18T08:01:16.477Z,21.77
2023-01-18T08:03:47.176Z,23.42
2023-01-18T08:06:19.361Z,25.50
2023-01-18T08:08:46.824Z,21.20
2023-01-18T08:11:14.318Z,22.73
2023-01-18T08:13:41.926Z,23.60
2023-01-18T08:16:12.204Z,21.67
2023-01-18T08:18:40.569Z,24.80
2023-01-18T08:21:13.086Z,25.30
2023-01-18T08:23:41.274Z,22.38
2023-01-18T08:26:10.590Z,22.65
2023-01-18T08:28:38.102Z,22.00
2023-01-18T08:31:13.138Z,26.23
2023-01-18T08:33:48.854Z,21.60
2023-01-18T08:36:25.676Z,23.15
2023-01-18T08:38:56.982Z,21.90
2023-01-18T08:41:30.526Z,27.65
2023-01-18T08:43:59.564Z,22.02
2023-01-18T08:46:28.127Z,23.20
2023-01-18T08:48:59.113Z,22.38
2023-01-18T08:51:26.752Z,20.02
2023-01-18T08:53:57.298Z,19.55
2023-01-18T08:56:26.572Z,20.08
2023-01-18T08:58:54.266Z,19.83
2023-01-18T09:01:23.675Z,22.55
2023-01-18T09:03:55.725Z,20.98
2023-01-18T09:06:23.759Z,22.98
2023-01-18T09:08:51.502Z,20.80
2023-01-18T09:11:19.075Z,20.25
2023-01-18T09:13:59.726Z,22.00
2023-01-18T09:16:29.222Z,20.80
2023-01-18T09:18:57.549Z,19.88
2023-01-18T09:21:27.831Z,22.88
2023-01-18T09:23:59.790Z,20.80
2023-01-18T09:26:30.477Z,21.70
2023-01-18T09:28:58.468Z,19.70
2023-01-18T09:31:28.651Z,24.17
2023-01-18T09:34:12.983Z,20.05
2023-01-18T09:36:46.142Z,21.92
2023-01-18T09:39:13.613Z,21.50
2023-01-18T09:41:47.360Z,21.17
2023-01-18T09:44:34.833Z,20.85
2023-01-18T09:47:26.684Z,22.63
2023-01-18T09:50:10.889Z,20.45
2023-01-18T09:53:05.633Z,20.58
2023-01-18T09:55:57.439Z,20.20
2023-01-18T09:58:34.818Z,18.83
2023-01-18T10:01:17.206Z,23.17
2023-01-18T10:03:57.490Z,20.95
2023-01-18T10:07:01.872Z,21.25
2023-01-18T10:09:49.729Z,20.85
2023-01-18T10:12:40.743Z,19.80
2023-01-18T10:15:26.547Z,19.03
2023-01-18T10:17:57.745Z,18.10
2023-01-18T10:20:58.109Z,18.90
2023-01-18T10:23:45.956Z,19.48
2023-01-18T10:26:28.752Z,17.60
2023-01-18T10:29:17.099Z,20.33
2023-01-18T10:32:09.014Z,18.75
2023-01-18T10:37:27.108Z,16.88
2023-01-18T10:40:03.990Z,15.68
2023-01-18T10:42:44.655Z,15.68
2023-01-18T10:45:21.167Z,15.95
2023-01-18T10:47:50.877Z,15.60
2023-01-18T10:50:38.785Z,17.20
2023-01-18T10:53:36.539Z,16.83
2023-01-18T10:56:09.911Z,15.82
2023-01-18T10:59:00.138Z,15.60
2023-01-18T11:01:33.349Z,16.33
2023-01-18T11:04:16.687Z,17.02
2023-01-18T11:06:57.507Z,17.60
2023-01-18T11:10:09.512Z,15.65
2023-01-18T11:12:48.507Z,14.60
2023-01-18T11:15:15.855Z,15.85
2023-01-18T11:18:02.871Z,17.45
2023-01-18T11:20:35.505Z,15.00
2023-01-18T11:23:17.005Z,16.02
2023-01-18T11:26:14.606Z,15.30
2023-01-18T11:28:59.174Z,13.45
2023-01-18T11:31:32.187Z,20.50
2023-01-18T11:34:08.481Z,17.42
2023-01-18T11:36:43.119Z,14.52
2023-01-18T11:39:22.563Z,14.88
2023-01-18T11:41:50.341Z,15.15
2023-01-18T11:44:36.027Z,15.82
2023-01-18T11:47:12.447Z,13.52
2023-01-18T11:49:54.341Z,14.80
2023-01-18T11:55:23.702Z,14.70
2023-01-18T11:57:54.099Z,14.07
2023-01-18T12:00:27.965Z,15.95
2023-01-18T12:03:27.095Z,14.30
2023-01-18T12:06:49.820Z,15.63
2023-01-18T12:09:25.122Z,14.07
2023-01-18T12:12:29.937Z,13.25
2023-01-18T12:15:46.567Z,13.65
2023-01-18T12:18:29.430Z,13.98
2023-01-18T12:21:15.495Z,13.43
2023-01-18T12:24:04.031Z,11.48
2023-01-18T12:26:58.058Z,13.82
2023-01-18T12:30:12.257Z,15.68
2023-01-18T12:33:38.241Z,13.25
2023-01-18T12:36:34.540Z,14.23
2023-01-18T12:39:27.185Z,13.20
2023-01-18T12:42:05.104Z,14.52
2023-01-18T12:45:00.811Z,12.43
2023-01-18T12:47:40.584Z,13.57
2023-01-18T12:50:28.190Z,14.25
2023-01-18T12:53:05.988Z,12.75
2023-01-18T12:55:37.625Z,12.70
2023-01-18T12:58:06.575Z,11.32
2023-01-18T13:00:47.037Z,11.77
2023-01-18T13:03:25.090Z,15.10
2023-01-18T13:06:02.284Z,12.77
2023-01-18T13:08:40.186Z,11.55
2023-01-18T13:11:28.415Z,10.90
2023-01-18T13:14:22.216Z,9.88
2023-01-18T13:17:08.856Z,11.15
2023-01-18T13:20:15.993Z,9.70
2023-01-18T13:23:07.624Z,14.02
2023-01-18T13:25:57.425Z,8.98
2023-01-18T13:28:26.676Z,11.23
2023-01-18T13:31:03.220Z,9.30
2023-01-18T13:33:57.216Z,9.88
2023-01-18T13:36:26.106Z,8.95
2023-01-18T13:39:06.897Z,11.43
2023-01-18T13:41:34.386Z,13.35
2023-01-18T13:44:06.895Z,11.35
2023-01-18T13:46:39.355Z,10.82
2023-01-18T13:49:38.582Z,9.25
2023-01-18T13:52:35.284Z,12.02
2023-01-18T13:55:25.861Z,12.20
2023-01-18T13:57:55.830Z,9.23
2023-01-18T14:00:26.185Z,10.70
2023-01-18T14:03:06.165Z,8.63
2023-01-18T14:05:43.691Z,8.48
2023-01-18T14:08:26.178Z,9.27
2023-01-18T14:11:03.301Z,8.63
2023-01-18T14:13:48.656Z,10.38
2023-01-18T14:16:27.840Z,9.35
2023-01-18T14:19:19.620Z,10.45
2023-01-18T14:22:11.683Z,19.02
2023-01-18T14:27:25.575Z,8.02
2023-01-18T14:30:13.118Z,9.20
2023-01-18T14:32:54.373Z,10.70
2023-01-18T14:35:25.872Z,8.60
2023-01-18T14:40:53.696Z,8.68
2023-01-18T14:43:37.173Z,9.48
2023-01-18T14:46:12.028Z,7.18
2023-01-18T14:48:52.843Z,11.52
2023-01-18T14:51:28.162Z,8.85
2023-01-18T14:54:00.574Z,8.18
2023-01-18T14:56:40.334Z,9.52
2023-01-18T14:59:27.505Z,13.02
2023-01-18T15:02:00.094Z,8.77
2023-01-18T15:04:32.869Z,9.18
2023-01-18T15:07:08.029Z,7.63
2023-01-18T15:09:39.516Z,9.05
2023-01-18T15:12:16.838Z,7.57
2023-01-18T15:14:48.960Z,7.35
2023-01-18T15:17:23.974Z,7.65
2023-01-18T15:19:59.714Z,8.38
2023-01-18T15:22:36.730Z,9.07
2023-01-18T15:25:17.322Z,9.00
2023-01-18T15:27:54.484Z,9.23
2023-01-18T15:30:25.403Z,9.05
2023-01-18T15:32:58.470Z,9.77
2023-01-18T15:35:26.836Z,8.68
2023-01-18T15:37:57.870Z,9.25
2023-01-18T15:40:31.367Z,8.82
2023-01-18T15:43:32.287Z,7.70
2023-01-18T15:46:01.334Z,10.15
2023-01-18T15:48:47.574Z,8.93
2023-01-18T15:51:15.626Z,9.43
2023-01-18T15:53:52.410Z,9.38
2023-01-18T15:56:26.643Z,8.18
2023-01-18T15:58:59.236Z,8.07
2023-01-18T16:01:34.736Z,9.60
2023-01-18T16:04:24.962Z,7.35
2023-01-18T16:07:01.172Z,8.05
2023-01-18T16:09:41.129Z,9.40
2023-01-18T16:12:12.391Z,8.60
2023-01-18T16:14:58.115Z,9.48
2023-01-18T16:17:27.291Z,7.03
2023-01-18T16:20:01.076Z,8.95
2023-01-18T16:22:31.943Z,7.40
2023-01-18T16:25:08.525Z,7.80
2023-01-18T16:27:52.981Z,10.35
2023-01-18T16:30:39.001Z,8.85
2023-01-18T16:33:20.922Z,9.18
2023-01-18T16:35:49.351Z,8.93
2023-01-18T16:38:22.595Z,9.75
2023-01-18T16:40:51.391Z,7.85
2023-01-18T16:43:18.753Z,9.93
2023-01-18T16:45:50.416Z,8.85
2023-01-18T16:50:51.932Z,8.77
2023-01-18T16:53:19.740Z,9.48
2023-01-18T16:55:49.886Z,8.18
2023-01-18T16:58:18.993Z,8.73
2023-01-18T17:00:59.222Z,8.80
2023-01-18T17:03:27.635Z,10.55
2023-01-18T17:05:55.511Z,9.00
2023-01-18T17:08:22.999Z,12.55
2023-01-18T17:10:52.104Z,9.50
2023-01-18T17:13:19.644Z,11.77
2023-01-18T17:15:47.311Z,11.07
2023-01-18T17:18:20.671Z,12.68
2023-01-18T17:20:48.597Z,11.25
2023-01-18T17:23:17.025Z,12.07
2023-01-18T17:25:47.622Z,9.27
2023-01-18T17:28:18.048Z,11.32
2023-01-18T17:30:49.025Z,11.32
2023-01-18T17:33:26.149Z,9.85
2023-01-18T17:35:55.179Z,10.13
2023-01-18T17:41:29.117Z,9.68
2023-01-18T17:43:57.124Z,12.27
2023-01-18T17:46:24.785Z,12.95
2023-01-18T17:48:52.226Z,11.27
2023-01-18T17:51:19.780Z,11.55
2023-01-18T17:53:47.357Z,12.40
2023-01-18T17:56:18.139Z,13.73
2023-01-18T17:58:48.009Z,12.77
2023-01-18T18:01:25.106Z,10.50
2023-01-18T18:03:54.370Z,10.90
2023-01-18T18:06:30.893Z,13.38
2023-01-18T18:09:00.660Z,13.10
2023-01-18T18:11:30.130Z,10.90
2023-01-18T18:13:58.908Z,11.73
2023-01-18T18:16:26.772Z,13.77
2023-01-18T18:18:54.313Z,11.05
2023-01-18T18:21:26.241Z,11.88
2023-01-18T18:23:58.768Z,11.68
2023-01-18T18:26:26.196Z,13.13
2023-01-18T18:28:53.608Z,11.88
2023-01-18T18:31:25.248Z,14.60
2023-01-18T18:36:21.287Z,12.05
2023-01-18T18:38:48.699Z,11.65
2023-01-18T18:41:16.724Z,14.60
2023-01-18T18:43:44.374Z,12.40
2023-01-18T18:46:11.931Z,13.43
2023-01-18T18:48:39.574Z,11.13
2023-01-18T18:51:07.075Z,12.02
2023-01-18T18:53:38.715Z,12.70
2023-01-18T18:56:10.418Z,13.70
2023-01-18T18:58:40.038Z,12.23
2023-01-18T19:01:19.059Z,10.52
2023-01-18T19:03:47.741Z,12.48
2023-01-18T19:06:15.899Z,12.38
2023-01-18T19:08:43.436Z,12.25
2023-01-18T19:11:11.454Z,12.05
2023-01-18T19:13:38.996Z,14.63
2023-01-18T19:16:07.461Z,13.52
2023-01-18T19:18:35.624Z,16.50
2023-01-18T19:21:06.420Z,16.17
2023-01-18T19:23:34.765Z,14.10
2023-01-18T19:27:13.595Z,13.52
2023-01-18T19:29:07.498Z,13.45
2023-01-18T19:31:50.834Z,13.13
2023-01-18T19:34:21.140Z,14.60
2023-01-18T19:36:54.044Z,13.45
2023-01-18T19:39:24.697Z,12.88
2023-01-18T19:41:55.258Z,15.85
2023-01-18T19:44:25.765Z,14.50
2023-01-18T19:46:53.950Z,14.48
2023-01-18T19:49:26.241Z,13.20
2023-01-18T19:51:58.634Z,15.45
2023-01-18T19:54:26.203Z,14.35
2023-01-18T19:56:56.390Z,14.27
2023-01-18T19:59:26.304Z,13.75
2023-01-18T20:01:54.881Z,13.80
2023-01-18T20:04:22.453Z,14.38
2023-01-18T20:06:52.397Z,14.77
2023-01-18T20:09:29.377Z,14.93
2023-01-18T20:12:13.436Z,16.98
2023-01-18T20:14:45.159Z,16.10
2023-01-18T20:19:46.605Z,15.73
2023-01-18T20:22:14.851Z,16.80
2023-01-18T20:24:45.402Z,11.75
2023-01-18T20:27:16.476Z,15.20
2023-01-18T20:29:44.944Z,13.85
2023-01-18T20:32:17.632Z,14.05
2023-01-18T20:34:47.004Z,13.60
2023-01-18T20:37:16.406Z,14.95
2023-01-18T20:39:43.854Z,14.82
2023-01-18T20:42:11.355Z,14.57
2023-01-18T20:44:40.435Z,16.88
2023-01-18T20:47:08.014Z,14.05
2023-01-18T20:49:38.853Z,15.60
2023-01-18T20:52:08.092Z,15.00
2023-01-18T20:54:36.656Z,15.93
2023-01-18T20:57:09.582Z,15.00
2023-01-18T20:59:36.995Z,14.30
2023-01-18T21:02:04.576Z,14.43
2023-01-18T21:04:32.305Z,13.35
2023-01-18T21:06:59.874Z,15.95
2023-01-18T21:09:30.094Z,14.90
2023-01-18T21:11:57.561Z,14.52
2023-01-18T21:14:25.048Z,16.00
2023-01-18T21:16:52.488Z,14.07
2023-01-18T21:19:20.696Z,13.85
2023-01-18T21:21:51.139Z,14.65
2023-01-18T21:24:18.755Z,15.75
2023-01-18T21:26:46.305Z,13.77
2023-01-18T21:29:16.365Z,16.58
2023-01-18T21:31:47.433Z,15.05
2023-01-18T21:34:17.879Z,15.95
2023-01-18T21:36:45.375Z,15.85
2023-01-18T21:39:18.298Z,16.00
2023-01-18T21:42:06.087Z,16.40
2023-01-18T21:44:52.160Z,15.63
2023-01-18T21:47:19.787Z,16.73
2023-01-18T21:50:21.701Z,19.63
2023-01-18T21:53:14.289Z,16.30
2023-01-18T21:55:41.802Z,17.20
2023-01-18T21:58:27.840Z,15.93
2023-01-18T22:01:00.329Z,17.63
2023-01-18T22:03:28.029Z,16.63
2023-01-18T22:05:55.482Z,17.52
2023-01-18T22:08:22.915Z,16.00
2023-01-18T22:10:50.465Z,17.38
2023-01-18T22:13:17.916Z,16.38
2023-01-18T22:15:45.355Z,16.02
2023-01-18T22:18:12.974Z,16.20
2023-01-18T22:20:40.604Z,17.30
2023-01-18T22:23:08.127Z,16.45
2023-01-18T22:25:35.942Z,17.88
2023-01-18T22:28:04.009Z,16.70
2023-01-18T22:30:37.140Z,19.60
2023-01-18T22:33:04.544Z,17.92
2023-01-18T22:35:32.034Z,17.80
2023-01-18T22:37:59.887Z,16.80
2023-01-18T22:40:47.860Z,17.40
2023-01-18T22:43:15.367Z,18.20
2023-01-18T22:45:42.761Z,18.73
2023-01-18T22:48:10.194Z,19.30
2023-01-18T22:50:37.747Z,18.92
2023-01-18T22:53:05.701Z,17.60
2023-01-18T22:55:34.271Z,20.23
2023-01-18T22:58:02.206Z,19.65
2023-01-18T23:00:30.090Z,16.60
2023-01-18T23:02:57.697Z,19.35
2023-01-18T23:05:25.138Z,20.58
2023-01-18T23:07:52.845Z,19.00
2023-01-18T23:10:20.275Z,18.05
2023-01-18T23:12:47.692Z,19.58
2023-01-18T23:15:33.680Z,20.83
2023-01-18T23:18:02.186Z,21.02
2023-01-18T23:20:30.030Z,23.48
2023-01-18T23:22:57.427Z,22.58
2023-01-18T23:25:24.999Z,22.95
2023-01-18T23:27:52.424Z,20.83
2023-01-18T23:30:21.945Z,18.45
2023-01-18T23:32:50.660Z,20.70
2023-01-18T23:35:18.077Z,18.25
2023-01-18T23:37:45.712Z,22.35
2023-01-18T23:40:31.573Z,19.63
2023-01-18T23:43:17.669Z,20.85
2023-01-18T23:46:03.720Z,19.33
2023-01-18T23:48:50.038Z,22.83
2023-01-18T23:51:36.236Z,22.27
2023-01-18T23:54:16.687Z,20.23
2023-01-18T23:56:46.901Z,23.17
2023-01-18T23:59:14.394Z,21.85
